Date,TemperatureHighF,TemperatureAvgF,TemperatureLowF,DewpointHighF,DewpointAvgF,DewpointLowF,HumidityHigh,HumidityAvg,HumidityLow,PressureMaxIn,PressureMinIn,WindSpeedMaxMPH,WindSpeedAvgMPH,GustSpeedMaxMPH,PrecipitationSumIn
2013-2-1,71,58,48,44,37,32,70,48,25,30.27,30.10,10,3,21,0.00
2013-2-2,74,61,49,55,48,41,85,64,40,30.19,30.08,8,2,17,0.00
2013-2-3,70,61,52,53,42,33,79,52,31,30.25,29.93,8,4,14,0.00
2013-2-4,75,64,58,59,55,51,92,75,50,29.93,29.71,9,3,14,0.01
2013-2-5,81,67,54,56,44,33,91,50,19,29.89,29.78,6,2,8,0.00
2013-2-6,73,64,60,59,57,49,90,77,58,29.90,29.73,8,3,12,0.00
2013-2-7,79,66,59,62,56,37,99,73,30,29.96,29.77,10,3,18,0.02
2013-2-8,69,59,49,46,36,28,71,45,22,30.14,29.96,12,5,19,0.00
2013-2-9,67,59,53,67,56,34,99,90,45,30.01,29.70,10,5,17,0.04
2013-2-10,68,64,54,68,42,26,99,52,23,29.93,29.66,10,4,18,0.04
2013-2-11,60,55,51,49,44,34,95,67,42,29.97,29.86,9,5,20,0.01
2013-2-12,72,59,51,56,43,21,99,65,19,29.97,29.73,11,5,18,0.01
2013-2-13,65,52,40,34,30,22,73,47,20,30.08,29.94,14,4,26,0.00
2013-2-14,69,54,41,40,36,31,78,52,28,30.07,29.92,8,2,13,0.00
2013-2-15,66,53,44,43,37,20,83,57,29,30.31,30.00,11,5,20,0.00
2013-2-16,65,50,33,30,25,19,65,39,23,30.41,30.16,8,3,12,0.00
2013-2-17,69,56,42,52,37,28,73,51,33,30.16,29.90,12,6,19,0.00
2013-2-18,80,66,59,60,46,20,90,56,15,29.96,29.74,11,6,24,0.00
2013-2-19,66,58,48,33,29,24,53,35,21,30.17,29.97,11,6,19,0.00
2013-2-20,68,59,53,65,51,24,96,78,28,30.03,29.56,12,6,20,0.00
2013-2-21,78,68,57,65,41,18,92,48,11,29.77,29.48,15,6,25,0.01
2013-2-22,65,55,47,38,32,21,69,43,24,29.94,29.77,12,5,21,0.00
2013-2-23,74,56,42,39,34,28,60,45,21,29.98,29.77,10,4,17,0.00
2013-2-24,68,58,46,60,49,38,95,72,59,29.84,29.51,10,5,17,0.00
2013-2-25,62,56,46,62,33,14,99,48,16,29.80,29.48,24,13,37,0.00
2013-2-26,66,52,40,28,26,22,58,38,20,29.90,29.77,10,5,17,0.00
2013-2-27,63,54,46,34,27,21,59,37,21,30.16,29.80,16,6,25,0.00
2013-2-28,61,50,44,28,24,19,55,38,22,30.28,30.12,9,4,19,0.00